Aviation Digital Data Service (ADDS)

Output produced by METARs form (1205 UTC 24 February 2018)
found at http://www.aviationweather.gov/adds/metars/
 
TAF SGAS 240944Z 2412/2512 18002KT CAVOK TX34/2418Z TN22/2509Z 
     BECMG 2418/2321 VRB05KT 9999 SCT033 
     BECMG 2400/2403 CAVOK
       
TAF SGES 240944Z 2412/2512 18005KT CAVOK TX32/2418Z TN21/2509Z
       
TAF SGCO 240944Z 2412/2512 13002KT CAVOK TX35/2418Z TN23/2509Z 
     BECMG 2419/2421 VRB05KT 9999 SCT033 
     BECMG 2509/2512 CAVOK